MMCP/CPE METAR and TAF weather

Enter ICAO airport designator
Station Type Date Time Source
MMCP METAR 2019/02/20 16:41 UTC NOAA

MMCP 201641Z 12014G24KT 7SM SKC 31/18 A2986


Station Type Date Time Source
MMCP Decoded METAR 2019/02/20 16:41 UTC NOAA

Campeche, Camp., Mexico (MMCP) 19-51N 090-33W
Feb 20, 2019 - 11:41 AM EST / 2019.02.20 1641 UTC
Wind: from the ESE (120 degrees) at 16 MPH (14 KT) gusting to 28 MPH (24 KT):0
Visibility: 7 mile(s):0
Sky conditions: clear
Temperature: 87 F (31 C)
Dew Point: 64 F (18 C)
Relative Humidity: 45%
Pressure (altimeter): 29.86 in. Hg (1011 hPa)
ob: MMCP 201641Z 12014G24KT 7SM SKC 31/18 A2986
cycle: 16

Station Type Date Time Source
MMCP TAF 2019/02/20 18:42 UTC NOAA

TAF MMCP 201639Z 2018/2118 12010G20KT P6SM SKC
BECMG 2019/2020 04010G20KT
FM210300 13018KT P6SM SKC
TEMPO 2110/2114 6SM HZ BKN010
FM211600 13010KT 6SM HZ SCT020 SCT070


Example: see airport list